createdAt,value
2019-02-25T00:01:37.767Z,27.13
2019-02-25T00:04:08.640Z,33.23
2019-02-25T00:06:40.384Z,31.13
2019-02-25T00:09:10.763Z,26.13
2019-02-25T00:11:41.564Z,25.70
2019-02-25T00:14:12.196Z,34.80
2019-02-25T00:16:42.938Z,29.40
2019-02-25T00:19:13.546Z,25.77
2019-02-25T00:21:44.149Z,28.33
2019-02-25T00:24:14.691Z,23.90
2019-02-25T00:26:45.313Z,24.73
2019-02-25T00:29:15.884Z,23.67
2019-02-25T00:31:46.788Z,24.33
2019-02-25T00:34:17.476Z,25.40
2019-02-25T00:36:48.060Z,23.77
2019-02-25T00:39:18.676Z,24.77
2019-02-25T00:41:49.373Z,31.53
2019-02-25T00:44:19.944Z,24.70
2019-02-25T00:46:50.660Z,22.03
2019-02-25T00:49:21.212Z,22.13
2019-02-25T00:51:51.966Z,24.73
2019-02-25T00:54:22.423Z,32.10
2019-02-25T00:56:53.257Z,28.40
2019-02-25T00:59:23.717Z,30.20
2019-02-25T01:01:54.794Z,26.63
2019-02-25T01:04:25.634Z,26.80
2019-02-25T01:06:56.276Z,25.17
2019-02-25T01:09:26.826Z,17.73
2019-02-25T01:11:57.637Z,21.80
2019-02-25T01:14:28.166Z,24.80
2019-02-25T01:16:59.970Z,21.93
2019-02-25T01:19:30.455Z,18.40
2019-02-25T01:22:01.332Z,24.57
2019-02-25T01:24:33.002Z,26.07
2019-02-25T01:27:03.565Z,22.17
2019-02-25T01:29:35.128Z,24.00
2019-02-25T01:32:06.080Z,25.73
2019-02-25T01:34:36.523Z,22.33
2019-02-25T01:37:07.702Z,26.40
2019-02-25T01:39:38.389Z,25.90
2019-02-25T01:42:10.791Z,24.97
2019-02-25T01:44:41.492Z,28.63
2019-02-25T01:47:12.405Z,20.60
2019-02-25T01:49:42.891Z,29.77
2019-02-25T01:52:13.559Z,21.63
2019-02-25T01:54:44.184Z,24.17
2019-02-25T01:57:14.752Z,25.33
2019-02-25T01:59:45.384Z,20.73
2019-02-25T02:02:17.403Z,17.40
2019-02-25T02:04:47.838Z,19.63
2019-02-25T02:07:18.585Z,21.13
2019-02-25T02:09:49.024Z,26.43
2019-02-25T02:12:19.849Z,28.37
2019-02-25T02:14:50.435Z,16.30
2019-02-25T02:17:21.201Z,25.07
2019-02-25T02:19:51.691Z,23.60
2019-02-25T02:22:22.249Z,35.13
2019-02-25T02:24:52.856Z,28.60
2019-02-25T02:27:23.453Z,17.80
2019-02-25T02:29:53.915Z,26.10
2019-02-25T02:32:24.388Z,27.77
2019-02-25T02:34:54.992Z,23.87
2019-02-25T02:37:25.626Z,29.60
2019-02-25T02:39:56.087Z,23.93
2019-02-25T02:42:26.691Z,26.70
2019-02-25T02:44:59.637Z,37.10
2019-02-25T02:47:54.740Z,16.53
2019-02-25T02:50:26.416Z,30.57
2019-02-25T02:52:57.244Z,22.00
2019-02-25T02:55:27.927Z,23.97
2019-02-25T02:57:58.598Z,17.10
2019-02-25T03:00:29.139Z,29.00
2019-02-25T03:02:59.994Z,29.27
2019-02-25T03:05:30.506Z,28.80
2019-02-25T03:08:01.305Z,23.00
2019-02-25T03:10:31.902Z,24.97
2019-02-25T03:13:02.713Z,19.23
2019-02-25T03:15:33.391Z,22.47
2019-02-25T03:18:04.475Z,25.30
2019-02-25T03:20:35.045Z,23.03
2019-02-25T03:23:05.680Z,25.03
2019-02-25T03:25:36.204Z,17.70
2019-02-25T03:28:06.890Z,24.43
2019-02-25T03:30:37.455Z,18.93
2019-02-25T03:33:08.464Z,27.83
2019-02-25T03:35:38.946Z,23.70
2019-02-25T03:38:09.619Z,20.80
2019-02-25T03:40:40.225Z,17.03
2019-02-25T03:43:10.977Z,28.03
2019-02-25T03:45:42.005Z,22.23
2019-02-25T03:48:12.704Z,15.73
2019-02-25T03:50:43.244Z,24.20
2019-02-25T03:53:14.221Z,24.07
2019-02-25T03:55:44.797Z,27.63
2019-02-25T03:58:15.950Z,30.20
2019-02-25T04:00:46.442Z,22.40
2019-02-25T04:03:17.854Z,17.90
2019-02-25T04:05:48.409Z,31.73
2019-02-25T04:08:19.277Z,30.00
2019-02-25T04:10:49.675Z,52.23
2019-02-25T04:13:20.305Z,33.93
2019-02-25T04:15:50.740Z,80.03
2019-02-25T04:18:22.702Z,57.97
2019-02-25T04:20:53.308Z,82.30
2019-02-25T04:23:24.016Z,53.43
2019-02-25T04:25:54.752Z,54.57
2019-02-25T04:28:25.437Z,51.03
2019-02-25T04:30:55.926Z,40.57
2019-02-25T04:33:26.966Z,44.07
2019-02-25T04:35:57.613Z,47.83
2019-02-25T04:38:28.229Z,58.00
2019-02-25T04:40:58.850Z,43.13
2019-02-25T04:43:29.672Z,33.37
2019-02-25T04:46:00.418Z,37.73
2019-02-25T04:48:31.149Z,40.67
2019-02-25T04:51:01.745Z,71.87
2019-02-25T04:53:32.648Z,55.73
2019-02-25T04:56:03.368Z,51.37
2019-02-25T04:58:34.224Z,19.03
2019-02-25T05:01:04.751Z,41.60
2019-02-25T05:03:36.813Z,77.17
2019-02-25T05:06:07.452Z,58.53
2019-02-25T05:08:38.020Z,49.37
2019-02-25T05:11:08.624Z,65.33
2019-02-25T05:13:39.325Z,77.50
2019-02-25T05:16:09.842Z,48.63
2019-02-25T05:18:40.445Z,60.93
2019-02-25T05:21:11.313Z,63.87
2019-02-25T05:23:42.117Z,51.80
2019-02-25T05:26:12.604Z,51.57
2019-02-25T05:28:43.205Z,62.67
2019-02-25T05:31:13.734Z,54.50
2019-02-25T05:33:44.949Z,70.83
2019-02-25T05:36:15.578Z,70.10
2019-02-25T05:38:46.202Z,28.33
2019-02-25T05:41:16.808Z,30.97
2019-02-25T05:43:47.853Z,63.47
2019-02-25T05:46:19.111Z,73.67
2019-02-25T05:48:50.405Z,31.40
2019-02-25T05:51:22.268Z,75.53
2019-02-25T05:53:52.865Z,59.13
2019-02-25T05:56:23.392Z,64.50
2019-02-25T05:58:54.236Z,74.23
2019-02-25T06:01:24.692Z,119.63
2019-02-25T06:03:55.416Z,87.13
2019-02-25T06:06:26.081Z,75.67
2019-02-25T06:08:56.612Z,104.30
2019-02-25T06:11:27.225Z,66.13
2019-02-25T06:13:57.944Z,85.00
2019-02-25T06:16:28.379Z,64.67
2019-02-25T06:18:59.001Z,39.63
2019-02-25T06:21:29.629Z,78.97
2019-02-25T06:24:00.322Z,71.27
2019-02-25T06:26:30.801Z,64.40
2019-02-25T06:29:02.299Z,80.70
2019-02-25T06:31:33.072Z,294.13
2019-02-25T06:34:05.512Z,313.87
2019-02-25T06:36:36.229Z,256.07
2019-02-25T06:39:07.810Z,304.50
2019-02-25T06:41:38.483Z,122.47
2019-02-25T06:44:09.113Z,122.63
2019-02-25T06:46:39.680Z,241.33
2019-02-25T06:49:10.564Z,415.70
2019-02-25T06:51:41.208Z,335.77
2019-02-25T06:54:11.872Z,358.83
2019-02-25T06:56:42.393Z,221.17
2019-02-25T06:59:13.061Z,31.63
2019-02-25T07:01:44.549Z,68.70
2019-02-25T07:04:29.540Z,56.27
2019-02-25T07:07:28.056Z,73.97
2019-02-25T07:10:19.961Z,109.47
2019-02-25T07:13:00.384Z,68.00
2019-02-25T07:15:46.028Z,71.37
2019-02-25T07:18:23.751Z,95.83
2019-02-25T07:21:01.642Z,24.73
2019-02-25T07:23:53.926Z,62.33
2019-02-25T07:26:39.948Z,72.97
2019-02-25T07:29:36.685Z,55.67
2019-02-25T07:32:34.956Z,59.57
2019-02-25T07:35:14.525Z,48.13
2019-02-25T07:37:58.888Z,55.87
2019-02-25T07:40:48.251Z,29.37
2019-02-25T07:43:36.435Z,24.30
2019-02-25T07:46:32.349Z,25.43
2019-02-25T07:49:15.734Z,23.90
2019-02-25T07:52:04.916Z,22.87
2019-02-25T07:54:54.757Z,19.83
2019-02-25T07:57:50.291Z,21.13
2019-02-25T08:00:46.037Z,23.00
2019-02-25T08:03:29.312Z,16.43
2019-02-25T08:06:20.748Z,15.53
2019-02-25T08:09:06.354Z,14.67
2019-02-25T08:12:04.958Z,14.97
2019-02-25T08:15:03.269Z,14.17
2019-02-25T08:17:51.544Z,19.17
2019-02-25T08:20:39.797Z,10.27
2019-02-25T08:23:18.218Z,12.43
2019-02-25T08:26:13.223Z,13.67
2019-02-25T08:29:01.894Z,11.67
2019-02-25T08:31:48.198Z,14.00
2019-02-25T08:34:40.791Z,7.40
2019-02-25T08:37:55.439Z,11.57
2019-02-25T08:41:07.388Z,8.73
2019-02-25T08:44:03.021Z,10.67
2019-02-25T08:47:04.637Z,10.73
2019-02-25T08:49:38.776Z,9.63
2019-02-25T08:52:09.377Z,8.40
2019-02-25T08:54:39.804Z,7.00
2019-02-25T08:57:10.608Z,11.17
2019-02-25T08:59:41.092Z,7.80
2019-02-25T09:02:11.928Z,12.23
2019-02-25T09:04:42.557Z,10.23
2019-02-25T09:07:13.465Z,9.90
2019-02-25T09:09:44.109Z,13.13
2019-02-25T09:12:14.700Z,10.60
2019-02-25T09:14:45.183Z,11.47
2019-02-25T09:17:16.190Z,10.17
2019-02-25T09:19:46.640Z,5.03
2019-02-25T09:22:17.344Z,14.30
2019-02-25T09:24:47.930Z,7.87
2019-02-25T09:27:20.268Z,10.40
2019-02-25T09:29:50.805Z,9.93
2019-02-25T09:32:22.673Z,12.50
2019-02-25T09:34:53.177Z,12.40
2019-02-25T09:37:23.908Z,15.47
2019-02-25T09:39:54.399Z,11.67
2019-02-25T09:42:25.242Z,13.20
2019-02-25T09:44:55.945Z,10.83
2019-02-25T09:47:26.584Z,10.77
2019-02-25T09:49:57.373Z,11.63
2019-02-25T09:52:29.004Z,11.73
2019-02-25T09:54:59.587Z,9.63
2019-02-25T09:57:30.425Z,10.70
2019-02-25T10:00:01.216Z,13.67
2019-02-25T10:02:32.376Z,11.93
2019-02-25T10:05:03.172Z,12.33
2019-02-25T10:07:35.169Z,17.93
2019-02-25T10:10:05.900Z,10.60
2019-02-25T10:12:36.974Z,12.33
2019-02-25T10:15:09.002Z,8.80
2019-02-25T10:17:39.710Z,18.00
2019-02-25T10:20:10.536Z,16.17
2019-02-25T10:22:41.477Z,11.87
2019-02-25T10:25:12.170Z,13.97
2019-02-25T10:27:42.796Z,13.17
2019-02-25T10:30:13.579Z,15.50
2019-02-25T10:32:44.417Z,14.90
2019-02-25T10:35:14.915Z,10.43
2019-02-25T10:37:46.037Z,15.93
2019-02-25T10:40:19.065Z,7.90
2019-02-25T10:42:48.713Z,13.10
2019-02-25T10:45:19.580Z,13.77
2019-02-25T10:47:51.680Z,14.27
2019-02-25T10:50:22.470Z,15.03
2019-02-25T10:53:02.978Z,15.30
2019-02-25T10:55:32.881Z,14.00
2019-02-25T10:58:03.821Z,12.33
2019-02-25T11:00:35.292Z,7.97
2019-02-25T11:03:07.109Z,12.57
2019-02-25T11:05:37.803Z,15.60
2019-02-25T11:08:12.076Z,16.43
2019-02-25T11:10:51.251Z,10.20
2019-02-25T11:13:22.642Z,11.27
2019-02-25T11:15:53.297Z,12.33
2019-02-25T11:18:25.996Z,15.67
2019-02-25T11:20:56.043Z,16.13
2019-02-25T11:23:26.881Z,13.57
2019-02-25T11:25:57.967Z,10.47
2019-02-25T11:28:31.659Z,11.30
2019-02-25T11:31:02.079Z,16.80
2019-02-25T11:33:34.383Z,12.43
2019-02-25T11:36:05.688Z,12.70
2019-02-25T11:38:38.639Z,13.33
2019-02-25T11:41:11.218Z,11.37
2019-02-25T11:43:43.350Z,18.67
2019-02-25T11:46:13.840Z,14.17
2019-02-25T11:48:44.513Z,12.13
2019-02-25T11:51:16.734Z,15.97
2019-02-25T11:53:47.722Z,16.20
2019-02-25T11:56:18.253Z,13.13
2019-02-25T11:58:48.832Z,13.53
2019-02-25T12:01:19.364Z,14.63
2019-02-25T12:03:49.937Z,14.23
2019-02-25T12:06:20.644Z,17.57
2019-02-25T12:08:52.217Z,15.68
2019-02-25T12:11:22.912Z,14.13
2019-02-25T12:13:54.148Z,14.70
2019-02-25T12:16:25.288Z,13.13
2019-02-25T12:18:55.954Z,14.83
2019-02-25T12:21:36.035Z,15.50
2019-02-25T12:24:06.877Z,8.70
2019-02-25T12:26:37.663Z,15.50
2019-02-25T12:29:11.015Z,16.10
2019-02-25T12:31:40.790Z,12.47
2019-02-25T12:34:11.372Z,13.83
2019-02-25T12:36:42.436Z,10.70
2019-02-25T12:39:13.021Z,12.73
2019-02-25T12:41:43.601Z,10.57
2019-02-25T12:44:14.238Z,10.67
2019-02-25T12:46:44.880Z,8.33
2019-02-25T12:49:15.906Z,9.17
2019-02-25T12:51:48.064Z,9.90
2019-02-25T12:54:21.857Z,9.67
2019-02-25T12:56:52.728Z,8.90
2019-02-25T12:59:23.539Z,9.40
2019-02-25T13:01:54.116Z,8.63
2019-02-25T13:04:24.756Z,7.37
2019-02-25T13:06:55.391Z,14.23
2019-02-25T13:09:25.959Z,9.37
2019-02-25T13:11:56.436Z,9.07
2019-02-25T13:14:27.209Z,8.53
2019-02-25T13:16:58.122Z,8.77
2019-02-25T13:19:31.059Z,9.33
2019-02-25T13:22:02.150Z,7.07
2019-02-25T13:24:35.054Z,8.03
2019-02-25T13:27:05.878Z,7.43
2019-02-25T13:29:37.576Z,7.53
2019-02-25T13:32:09.943Z,8.33
2019-02-25T13:34:41.075Z,8.87
2019-02-25T13:37:11.656Z,9.73
2019-02-25T13:39:43.791Z,4.83
2019-02-25T13:42:14.375Z,5.57
2019-02-25T13:44:51.263Z,7.50
2019-02-25T13:47:25.122Z,10.13
2019-02-25T13:49:56.064Z,5.90
2019-02-25T13:52:29.832Z,6.07
2019-02-25T13:55:00.521Z,7.77
2019-02-25T13:57:32.045Z,10.20
2019-02-25T14:00:03.149Z,8.07
2019-02-25T14:02:34.061Z,7.67
2019-02-25T14:05:05.232Z,7.23
2019-02-25T14:07:36.708Z,14.10
2019-02-25T14:10:09.348Z,8.30
2019-02-25T14:12:43.853Z,7.80
2019-02-25T14:15:16.295Z,5.80
2019-02-25T14:17:47.104Z,5.90
2019-02-25T14:20:18.468Z,6.03
2019-02-25T14:22:50.176Z,12.17
2019-02-25T14:25:22.472Z,7.73
2019-02-25T14:27:53.454Z,7.97
2019-02-25T14:30:24.786Z,5.30
2019-02-25T14:32:55.814Z,6.57
2019-02-25T14:35:28.778Z,9.70
2019-02-25T14:38:05.113Z,11.53
2019-02-25T14:40:32.774Z,10.57
2019-02-25T14:43:05.948Z,6.83
2019-02-25T14:45:41.429Z,7.20
2019-02-25T14:48:10.787Z,9.20
2019-02-25T14:50:43.588Z,9.03
2019-02-25T14:53:14.959Z,10.30
2019-02-25T14:55:47.804Z,9.10
2019-02-25T14:58:18.397Z,8.37
2019-02-25T15:00:51.266Z,7.30
2019-02-25T15:03:22.676Z,10.13
2019-02-25T15:05:54.998Z,9.00
2019-02-25T15:08:28.344Z,8.40
2019-02-25T15:11:01.900Z,6.27
2019-02-25T15:13:32.680Z,7.77
2019-02-25T15:16:03.792Z,7.23
2019-02-25T15:18:34.167Z,9.60
2019-02-25T15:21:06.659Z,7.63
2019-02-25T15:23:38.009Z,5.33
2019-02-25T15:26:08.581Z,9.43
2019-02-25T15:28:39.114Z,9.23
2019-02-25T15:31:11.975Z,10.03
2019-02-25T15:33:42.545Z,8.67
2019-02-25T15:36:17.450Z,6.40
2019-02-25T15:38:46.489Z,10.07
2019-02-25T15:41:16.897Z,11.23
2019-02-25T15:43:47.311Z,7.60
2019-02-25T15:46:19.648Z,10.37
2019-02-25T15:48:50.381Z,10.40
2019-02-25T15:51:21.053Z,11.40
2019-02-25T15:53:53.984Z,11.37
2019-02-25T15:56:25.284Z,12.60
2019-02-25T15:58:56.592Z,12.97
2019-02-25T16:01:27.324Z,11.20
2019-02-25T16:04:02.209Z,10.93
2019-02-25T16:06:31.276Z,10.33
2019-02-25T16:09:03.067Z,14.57
2019-02-25T16:11:36.641Z,8.93
2019-02-25T16:14:07.315Z,15.23
2019-02-25T16:16:37.964Z,11.00
2019-02-25T16:19:08.491Z,12.90
2019-02-25T16:21:41.052Z,11.07
2019-02-25T16:24:13.669Z,15.13
2019-02-25T16:26:45.249Z,19.27
2019-02-25T16:29:15.587Z,14.53
2019-02-25T16:31:49.019Z,40.53
2019-02-25T16:34:20.667Z,29.73
2019-02-25T16:36:52.014Z,15.80
2019-02-25T16:39:23.497Z,19.13
2019-02-25T16:41:54.142Z,18.00
2019-02-25T16:44:24.675Z,17.77
2019-02-25T16:46:55.251Z,22.33
2019-02-25T16:49:26.944Z,20.63
2019-02-25T16:51:59.778Z,27.63
2019-02-25T16:54:30.077Z,28.53
2019-02-25T16:57:02.999Z,24.87
2019-02-25T16:59:33.559Z,25.97
2019-02-25T17:02:06.612Z,44.07
2019-02-25T17:04:36.676Z,41.30
2019-02-25T17:07:07.357Z,58.00
2019-02-25T17:09:39.145Z,45.23
2019-02-25T17:12:10.436Z,41.27
2019-02-25T17:14:41.064Z,44.23
2019-02-25T17:17:11.803Z,45.83
2019-02-25T17:19:42.327Z,45.53
2019-02-25T17:22:13.095Z,39.90
2019-02-25T17:24:43.707Z,47.73
2019-02-25T17:27:15.946Z,46.50
2019-02-25T17:29:46.507Z,48.73
2019-02-25T17:32:19.376Z,43.63
2019-02-25T17:34:53.531Z,44.30
2019-02-25T17:37:26.622Z,43.73
2019-02-25T17:39:59.492Z,51.20
2019-02-25T17:42:33.366Z,43.60
2019-02-25T17:45:02.539Z,64.37
2019-02-25T17:47:35.149Z,67.47
2019-02-25T17:50:09.022Z,67.87
2019-02-25T17:52:40.453Z,78.13
2019-02-25T17:55:14.262Z,77.67
2019-02-25T17:57:45.068Z,74.23
2019-02-25T18:00:18.276Z,78.53
2019-02-25T18:02:50.280Z,89.27
2019-02-25T18:05:21.472Z,83.00
2019-02-25T18:07:53.646Z,90.77
2019-02-25T18:10:27.304Z,89.80
2019-02-25T18:12:59.055Z,86.90
2019-02-25T18:15:32.818Z,81.37
2019-02-25T18:18:11.674Z,101.13
2019-02-25T18:24:06.463Z,102.00
2019-02-25T18:29:41.428Z,102.10
2019-02-25T18:32:18.582Z,90.93
2019-02-25T18:34:50.545Z,91.43
2019-02-25T18:40:20.687Z,109.53
2019-02-25T18:42:51.457Z,109.57
2019-02-25T18:45:22.112Z,101.70
2019-02-25T18:47:53.040Z,83.10
2019-02-25T18:50:24.716Z,97.47
2019-02-25T18:52:57.217Z,88.97
2019-02-25T18:55:34.250Z,97.43
2019-02-25T18:58:07.936Z,96.33
2019-02-25T19:00:42.452Z,97.60
2019-02-25T19:03:12.808Z,95.80
2019-02-25T19:05:43.539Z,91.60
2019-02-25T19:08:20.299Z,107.93
2019-02-25T19:10:51.012Z,102.60
2019-02-25T19:13:25.264Z,76.10
2019-02-25T19:15:57.575Z,105.17
2019-02-25T19:18:29.515Z,95.43
2019-02-25T19:21:04.197Z,101.37
2019-02-25T19:23:36.947Z,110.27
2019-02-25T19:26:09.494Z,107.50
2019-02-25T19:28:38.999Z,112.17
2019-02-25T19:31:09.660Z,99.80
2019-02-25T19:33:40.091Z,103.17
2019-02-25T19:36:10.753Z,115.07
2019-02-25T19:38:43.609Z,108.80
2019-02-25T19:41:15.444Z,120.23
2019-02-25T19:43:45.679Z,103.40
2019-02-25T19:46:16.500Z,105.03
2019-02-25T19:48:47.956Z,109.13
2019-02-25T19:51:20.639Z,111.93
2019-02-25T19:53:51.384Z,105.00
2019-02-25T19:56:21.899Z,112.67
2019-02-25T19:58:52.396Z,123.63
2019-02-25T20:01:23.068Z,111.57
2019-02-25T20:03:53.729Z,123.93
2019-02-25T20:06:25.721Z,119.17
2019-02-25T20:08:58.360Z,117.30
2019-02-25T20:11:29.825Z,138.80
2019-02-25T20:14:01.549Z,129.30
2019-02-25T20:16:33.287Z,111.37
2019-02-25T20:19:04.719Z,106.83
2019-02-25T20:21:36.020Z,109.37
2019-02-25T20:24:07.738Z,120.37
2019-02-25T20:26:38.935Z,129.13
2019-02-25T20:29:11.075Z,125.23
2019-02-25T20:31:42.005Z,131.47
2019-02-25T20:34:12.520Z,133.37
2019-02-25T20:36:46.490Z,145.23
2019-02-25T20:39:17.103Z,176.25
2019-02-25T20:41:49.936Z,148.27
2019-02-25T20:44:22.158Z,150.47
2019-02-25T20:46:52.798Z,143.30
2019-02-25T20:49:26.401Z,133.57
2019-02-25T20:51:57.022Z,153.37
2019-02-25T20:54:28.195Z,139.80
2019-02-25T20:57:01.999Z,127.17
2019-02-25T20:59:34.829Z,133.90
2019-02-25T21:02:09.699Z,147.37
2019-02-25T21:04:38.727Z,141.03
2019-02-25T21:07:11.507Z,150.23
2019-02-25T21:09:42.247Z,136.27
2019-02-25T21:12:20.191Z,160.17
2019-02-25T21:14:50.859Z,145.23
2019-02-25T21:17:21.420Z,147.90
2019-02-25T21:19:51.951Z,129.70
2019-02-25T21:22:23.346Z,136.27
2019-02-25T21:24:55.900Z,136.37
2019-02-25T21:27:30.412Z,155.60
2019-02-25T21:30:06.181Z,140.13
2019-02-25T21:32:37.261Z,181.27
2019-02-25T21:35:18.381Z,159.40
2019-02-25T21:37:58.996Z,122.70
2019-02-25T21:40:54.955Z,132.50
2019-02-25T21:43:29.026Z,131.90
2019-02-25T21:46:06.758Z,138.00
2019-02-25T21:48:48.583Z,120.93
2019-02-25T21:51:55.083Z,157.03
2019-02-25T21:54:29.012Z,131.00
2019-02-25T21:57:05.460Z,167.80
2019-02-25T21:59:41.086Z,180.90
2019-02-25T22:02:14.708Z,127.53
2019-02-25T22:04:48.115Z,143.63
2019-02-25T22:07:26.271Z,177.43
2019-02-25T22:10:03.052Z,181.07
2019-02-25T22:12:37.760Z,167.63
2019-02-25T22:15:13.158Z,226.17
2019-02-25T22:17:47.981Z,102.27
2019-02-25T22:20:22.159Z,135.57
2019-02-25T22:22:57.445Z,206.27
2019-02-25T22:25:39.456Z,220.57
2019-02-25T22:28:26.529Z,141.87
2019-02-25T22:31:29.221Z,128.90
2019-02-25T22:34:37.153Z,116.50
2019-02-25T22:37:16.847Z,130.50
2019-02-25T22:39:52.476Z,154.13
2019-02-25T22:42:47.870Z,165.03
2019-02-25T22:45:33.572Z,141.17
2019-02-25T22:51:07.072Z,166.73
2019-02-25T22:53:41.950Z,143.57
2019-02-25T22:56:15.876Z,195.10
2019-02-25T22:59:13.825Z,114.07
2019-02-25T23:01:52.606Z,111.53
2019-02-25T23:04:44.855Z,148.20
2019-02-25T23:07:20.128Z,88.13
2019-02-25T23:10:24.222Z,117.47
2019-02-25T23:12:59.117Z,123.73
2019-02-25T23:15:30.629Z,130.90
2019-02-25T23:18:10.088Z,156.20
2019-02-25T23:20:46.272Z,174.55
2019-02-25T23:23:21.329Z,188.00
2019-02-25T23:25:56.696Z,188.17
2019-02-25T23:28:32.189Z,184.33
2019-02-25T23:31:06.753Z,233.57
2019-02-25T23:33:47.255Z,218.17
2019-02-25T23:36:21.796Z,174.63
2019-02-25T23:38:55.350Z,221.63
2019-02-25T23:41:34.311Z,174.80
2019-02-25T23:44:07.126Z,176.23
2019-02-25T23:46:41.648Z,197.93
2019-02-25T23:49:14.822Z,215.63
2019-02-25T23:51:48.141Z,149.73
2019-02-25T23:54:25.026Z,188.43
2019-02-25T23:56:57.875Z,185.70
2019-02-25T23:59:30.673Z,173.90
